createdAt,value
2022-10-31T00:00:32.993Z,95544.75
2022-10-31T00:03:00.000Z,95551.66
2022-10-31T00:05:27.121Z,95535.41
2022-10-31T00:07:54.586Z,95548.69
2022-10-31T00:10:21.325Z,95553.44
2022-10-31T00:12:48.022Z,95536.78
2022-10-31T00:15:14.838Z,95543.56
2022-10-31T00:17:41.760Z,95538.47
2022-10-31T00:20:09.177Z,95542.41
2022-10-31T00:22:35.900Z,95548.09
2022-10-31T00:25:02.718Z,95541.81
2022-10-31T00:27:29.390Z,95541.09
2022-10-31T00:29:56.438Z,95546.81
2022-10-31T00:32:23.186Z,95546.81
2022-10-31T00:34:49.981Z,95550.63
2022-10-31T00:37:16.856Z,95537.88
2022-10-31T00:39:46.216Z,95529.97
2022-10-31T00:42:12.875Z,95538.84
2022-10-31T00:44:42.440Z,95539.41
2022-10-31T00:47:09.193Z,95539.53
2022-10-31T00:49:36.097Z,95549.28
2022-10-31T00:52:02.828Z,95549.06
2022-10-31T00:54:31.857Z,95548.28
2022-10-31T00:56:58.763Z,95549.69
2022-10-31T00:59:25.696Z,95548.59
2022-10-31T01:01:52.667Z,95550.50
2022-10-31T01:04:19.685Z,95557.19
2022-10-31T01:06:46.318Z,95556.84
2022-10-31T01:09:13.254Z,95556.38
2022-10-31T01:11:40.190Z,95566.63
2022-10-31T01:14:10.057Z,95559.53
2022-10-31T01:16:36.852Z,95558.38
2022-10-31T01:19:04.063Z,95566.84
2022-10-31T01:21:30.816Z,95566.25
2022-10-31T01:23:59.690Z,95576.16
2022-10-31T01:26:29.268Z,95572.19
2022-10-31T01:28:59.121Z,95574.22
2022-10-31T01:31:29.603Z,95573.88
2022-10-31T01:33:57.531Z,95579.78
2022-10-31T01:36:27.329Z,95580.47
2022-10-31T01:38:56.830Z,95576.56
2022-10-31T01:41:27.449Z,95587.97
2022-10-31T01:43:57.361Z,95574.75
2022-10-31T01:46:33.234Z,95587.00
2022-10-31T01:49:04.582Z,95589.66
2022-10-31T01:51:35.972Z,95587.91
2022-10-31T01:54:07.541Z,95586.59
2022-10-31T01:56:38.843Z,95575.00
2022-10-31T01:59:10.067Z,95576.97
2022-10-31T02:01:38.745Z,95568.03
2022-10-31T02:04:07.851Z,95571.41
2022-10-31T02:06:41.192Z,95564.06
2022-10-31T02:09:08.078Z,95567.97
2022-10-31T02:11:36.841Z,95565.88
2022-10-31T02:14:04.474Z,95571.94
2022-10-31T02:16:31.358Z,95569.03
2022-10-31T02:18:58.481Z,95580.81
2022-10-31T02:21:33.921Z,95578.50
2022-10-31T02:24:21.881Z,95577.72
2022-10-31T02:27:09.924Z,95587.31
2022-10-31T02:30:06.356Z,95585.72
2022-10-31T02:32:44.140Z,95586.03
2022-10-31T02:35:37.270Z,95593.28
2022-10-31T02:38:33.735Z,95589.56
2022-10-31T02:41:46.070Z,95601.09
2022-10-31T02:44:27.064Z,95606.13
2022-10-31T02:47:07.822Z,95600.72
2022-10-31T02:49:39.332Z,95602.28
2022-10-31T02:52:38.668Z,95597.34
2022-10-31T02:55:23.503Z,95601.97
2022-10-31T02:58:03.442Z,95594.28
2022-10-31T03:00:51.238Z,95605.09
2022-10-31T03:03:48.188Z,95622.59
2022-10-31T03:06:36.054Z,95610.31
2022-10-31T03:09:25.454Z,95603.84
2022-10-31T03:11:58.210Z,95606.69
2022-10-31T03:14:40.132Z,95607.06
2022-10-31T03:17:10.631Z,95597.19
2022-10-31T03:19:41.277Z,95602.44
2022-10-31T03:22:26.872Z,95600.50
2022-10-31T03:24:56.801Z,95610.50
2022-10-31T03:27:27.429Z,95607.44
2022-10-31T03:29:58.585Z,95609.78
2022-10-31T03:32:47.258Z,95621.00
2022-10-31T03:35:17.228Z,95621.56
2022-10-31T03:37:44.839Z,95616.22
2022-10-31T03:40:17.515Z,95617.88
2022-10-31T03:42:51.652Z,95626.88
2022-10-31T03:45:26.992Z,95630.59
2022-10-31T03:47:55.361Z,95629.16
2022-10-31T03:50:24.898Z,95626.97
2022-10-31T03:52:58.492Z,95629.09
2022-10-31T03:55:35.394Z,95622.72
2022-10-31T03:58:12.023Z,95636.97
2022-10-31T04:00:46.927Z,95646.09
2022-10-31T04:03:13.792Z,95637.16
2022-10-31T04:05:46.422Z,95647.19
2022-10-31T04:08:18.099Z,95642.97
2022-10-31T04:10:49.154Z,95626.28
2022-10-31T04:13:22.040Z,95647.88
2022-10-31T04:15:57.650Z,95650.28
2022-10-31T04:18:27.226Z,95661.63
2022-10-31T04:21:02.693Z,95642.06
2022-10-31T04:23:31.562Z,95647.94
2022-10-31T04:25:59.520Z,95653.81
2022-10-31T04:28:26.405Z,95650.38
2022-10-31T04:30:53.873Z,95659.47
2022-10-31T04:33:21.436Z,95634.28
2022-10-31T04:35:48.515Z,95648.50
2022-10-31T04:38:15.835Z,95651.63
2022-10-31T04:40:43.935Z,95647.13
2022-10-31T04:43:30.643Z,95655.34
2022-10-31T04:46:00.041Z,95667.69
2022-10-31T04:48:27.003Z,95667.66
2022-10-31T04:50:54.034Z,95663.50
2022-10-31T04:53:21.214Z,95666.56
2022-10-31T04:56:07.478Z,95672.47
2022-10-31T04:58:40.778Z,95672.91
2022-10-31T05:01:09.561Z,95673.69
2022-10-31T05:03:36.482Z,95667.03
2022-10-31T05:06:03.248Z,95670.44
2022-10-31T05:08:29.939Z,95667.31
2022-10-31T05:11:04.329Z,95671.03
2022-10-31T05:13:32.582Z,95671.38
2022-10-31T05:16:19.566Z,95675.03
2022-10-31T05:19:05.271Z,95689.34
2022-10-31T05:21:52.056Z,95693.13
2022-10-31T05:24:22.759Z,95691.38
2022-10-31T05:26:50.185Z,95694.50
2022-10-31T05:29:17.825Z,95699.91
2022-10-31T05:31:44.709Z,95695.16
2022-10-31T05:34:25.122Z,95695.63
2022-10-31T05:37:18.126Z,95698.28
2022-10-31T05:39:45.749Z,95703.53
2022-10-31T05:42:15.562Z,95702.22
2022-10-31T05:44:42.419Z,95707.28
2022-10-31T05:47:21.229Z,95700.84
2022-10-31T05:50:07.259Z,95715.19
2022-10-31T05:52:49.095Z,95715.25
2022-10-31T05:55:25.893Z,95711.28
2022-10-31T05:58:11.450Z,95717.81
2022-10-31T06:00:40.787Z,95716.72
2022-10-31T06:03:10.662Z,95717.81
2022-10-31T06:05:57.921Z,95715.34
2022-10-31T06:08:31.458Z,95722.06
2022-10-31T06:11:02.489Z,95722.00
2022-10-31T06:13:49.654Z,95739.59
2022-10-31T06:16:22.049Z,95740.34
2022-10-31T06:18:50.315Z,95743.28
2022-10-31T06:21:19.242Z,95744.97
2022-10-31T06:23:48.626Z,95742.69
2022-10-31T06:26:35.488Z,95743.75
2022-10-31T06:29:04.293Z,95757.91
2022-10-31T06:32:00.137Z,95752.75
2022-10-31T06:34:28.447Z,95758.63
2022-10-31T06:36:55.215Z,95762.66
2022-10-31T06:39:25.145Z,95754.81
2022-10-31T06:41:53.206Z,95759.72
2022-10-31T06:44:21.818Z,95760.34
2022-10-31T06:46:54.555Z,95759.63
2022-10-31T06:49:40.245Z,95740.50
2022-10-31T06:52:15.933Z,95763.09
2022-10-31T06:54:42.769Z,95764.72
2022-10-31T06:57:09.744Z,95763.22
2022-10-31T06:59:38.320Z,95760.41
2022-10-31T07:02:05.250Z,95764.25
2022-10-31T07:04:33.758Z,95763.66
2022-10-31T07:07:02.864Z,95762.31
2022-10-31T07:09:30.441Z,95750.47
2022-10-31T07:12:01.377Z,95756.91
2022-10-31T07:14:30.949Z,95765.44
2022-10-31T07:16:57.634Z,95758.09
2022-10-31T07:19:32.167Z,95752.56
2022-10-31T07:21:58.969Z,95751.44
2022-10-31T07:24:28.543Z,95739.91
2022-10-31T07:27:10.373Z,95741.19
2022-10-31T07:29:37.662Z,95736.38
2022-10-31T07:32:04.975Z,95732.19
2022-10-31T07:34:34.225Z,95736.75
2022-10-31T07:37:15.941Z,95736.91
2022-10-31T07:39:42.884Z,95740.06
2022-10-31T07:42:10.789Z,95737.25
2022-10-31T07:44:42.686Z,95742.66
2022-10-31T07:47:28.106Z,95739.94
2022-10-31T07:50:31.034Z,95725.22
2022-10-31T07:53:09.638Z,95737.25
2022-10-31T07:56:08.566Z,95743.81
2022-10-31T07:58:35.895Z,95742.09
2022-10-31T08:01:02.793Z,95730.81
2022-10-31T08:03:39.513Z,95737.09
2022-10-31T08:06:24.690Z,95738.06
2022-10-31T08:09:11.860Z,95734.75
2022-10-31T08:11:39.757Z,95726.69
2022-10-31T08:14:07.447Z,95705.44
2022-10-31T08:16:35.189Z,95722.66
2022-10-31T08:19:04.622Z,95725.41
2022-10-31T08:21:37.216Z,95723.47
2022-10-31T08:24:04.230Z,95724.97
2022-10-31T08:26:51.447Z,95725.31
2022-10-31T08:29:18.378Z,95725.78
2022-10-31T08:31:46.939Z,95721.94
2022-10-31T08:34:32.744Z,95715.91
2022-10-31T08:37:20.943Z,95715.72
2022-10-31T08:39:52.936Z,95717.81
2022-10-31T08:42:21.178Z,95715.50
2022-10-31T08:44:47.958Z,95718.06
2022-10-31T08:47:14.888Z,95709.31
2022-10-31T08:49:41.724Z,95709.34
2022-10-31T08:52:12.024Z,95714.66
2022-10-31T08:54:41.968Z,95709.59
2022-10-31T08:57:37.984Z,95696.13
2022-10-31T09:00:06.388Z,95712.28
2022-10-31T09:03:00.927Z,95705.25
2022-10-31T09:05:33.147Z,95712.34
2022-10-31T09:08:01.941Z,95712.28
2022-10-31T09:10:31.618Z,95701.38
2022-10-31T09:12:59.753Z,95700.84
2022-10-31T09:15:46.737Z,95692.59
2022-10-31T09:18:22.440Z,95698.34
2022-10-31T09:20:59.896Z,95692.00
2022-10-31T09:23:29.227Z,95696.03
2022-10-31T09:25:56.358Z,95688.63
2022-10-31T09:28:38.286Z,95679.81
2022-10-31T09:31:15.750Z,95689.44
2022-10-31T09:34:05.788Z,95697.31
2022-10-31T09:36:39.459Z,95692.56
2022-10-31T09:39:09.632Z,95680.28
2022-10-31T09:41:57.284Z,95690.25
2022-10-31T09:44:39.649Z,95690.13
2022-10-31T09:47:31.115Z,95687.34
2022-10-31T09:50:30.178Z,95678.38
2022-10-31T09:53:04.761Z,95686.28
2022-10-31T09:55:40.420Z,95678.16
2022-10-31T09:58:14.832Z,95683.75
2022-10-31T10:00:43.711Z,95683.47
2022-10-31T10:03:36.770Z,95668.88
2022-10-31T10:06:25.779Z,95663.97
2022-10-31T10:09:11.203Z,95657.44
2022-10-31T10:12:21.470Z,95652.56
2022-10-31T10:14:54.085Z,95652.84
2022-10-31T10:17:28.397Z,95654.16
2022-10-31T10:20:20.578Z,95645.13
2022-10-31T10:22:58.466Z,95646.22
2022-10-31T10:25:40.538Z,95636.81
2022-10-31T10:28:21.242Z,95620.97
2022-10-31T10:30:50.193Z,95637.59
2022-10-31T10:33:24.887Z,95629.91
2022-10-31T10:36:02.419Z,95626.59
2022-10-31T10:38:47.973Z,95614.75
2022-10-31T10:41:20.760Z,95615.59
2022-10-31T10:43:50.898Z,95615.31
2022-10-31T10:46:57.880Z,95614.56
2022-10-31T10:49:30.627Z,95611.44
2022-10-31T10:52:19.349Z,95611.38
2022-10-31T10:54:54.443Z,95610.34
2022-10-31T10:57:42.551Z,95609.59
2022-10-31T11:00:29.068Z,95603.34
2022-10-31T11:02:56.878Z,95601.78
2022-10-31T11:05:35.713Z,95608.59
2022-10-31T11:08:04.135Z,95602.44
2022-10-31T11:10:31.134Z,95600.06
2022-10-31T11:13:14.635Z,95594.94
2022-10-31T11:15:57.092Z,95595.41
2022-10-31T11:18:27.116Z,95587.41
2022-10-31T11:20:57.119Z,95581.88
2022-10-31T11:23:26.032Z,95586.09
2022-10-31T11:26:06.857Z,95578.91
2022-10-31T11:28:37.725Z,95577.50
2022-10-31T11:31:12.578Z,95566.72
2022-10-31T11:33:45.163Z,95567.63
2022-10-31T11:36:20.107Z,95578.00
2022-10-31T11:38:47.100Z,95557.28
2022-10-31T11:41:34.988Z,95572.06
2022-10-31T11:44:05.177Z,95556.63
2022-10-31T11:46:40.799Z,95551.44
2022-10-31T11:49:18.526Z,95547.84
2022-10-31T11:51:50.332Z,95547.56
2022-10-31T11:54:31.679Z,95541.84
2022-10-31T11:56:58.636Z,95547.25
2022-10-31T11:59:32.775Z,95539.28
2022-10-31T12:02:01.880Z,95535.78
2022-10-31T12:04:41.380Z,95527.22
2022-10-31T12:07:08.776Z,95523.44
2022-10-31T12:09:37.773Z,95531.69
2022-10-31T12:12:13.601Z,95523.97
2022-10-31T12:15:24.782Z,95525.19
2022-10-31T12:18:09.881Z,95525.19
2022-10-31T12:21:13.874Z,95531.09
2022-10-31T12:24:05.309Z,95522.47
2022-10-31T12:27:04.226Z,95523.22
2022-10-31T12:29:56.881Z,95518.09
2022-10-31T12:32:53.166Z,95520.19
2022-10-31T12:35:32.355Z,95518.44
2022-10-31T12:38:17.043Z,95517.75
2022-10-31T12:41:11.134Z,95518.66
2022-10-31T12:43:58.690Z,95514.69
2022-10-31T12:46:54.743Z,95520.56
2022-10-31T12:49:28.994Z,95522.56
2022-10-31T12:52:29.910Z,95516.41
2022-10-31T12:55:15.338Z,95523.91
2022-10-31T12:58:22.658Z,95523.34
2022-10-31T13:01:00.017Z,95508.34
2022-10-31T13:03:36.704Z,95509.16
2022-10-31T13:06:09.019Z,95512.91
2022-10-31T13:09:09.594Z,95512.28
2022-10-31T13:11:45.688Z,95525.78
2022-10-31T13:14:27.742Z,95517.66
2022-10-31T13:16:56.503Z,95518.16
2022-10-31T13:19:28.702Z,95522.03
2022-10-31T13:22:05.541Z,95518.63
2022-10-31T13:24:40.535Z,95513.31
2022-10-31T13:27:54.817Z,95522.81
2022-10-31T13:30:24.449Z,95521.63
2022-10-31T13:32:55.562Z,95514.69
2022-10-31T13:35:37.673Z,95518.66
2022-10-31T13:38:22.928Z,95519.66
2022-10-31T13:41:00.217Z,95521.19
2022-10-31T13:43:34.386Z,95519.53
2022-10-31T13:46:01.278Z,95522.78
2022-10-31T13:48:43.186Z,95523.53
2022-10-31T13:51:11.871Z,95521.19
2022-10-31T13:53:46.487Z,95518.38
2022-10-31T13:56:20.760Z,95522.34
2022-10-31T13:59:14.128Z,95528.13
2022-10-31T14:01:49.724Z,95537.03
2022-10-31T14:04:25.910Z,95538.84
2022-10-31T14:07:13.661Z,95534.09
2022-10-31T14:09:55.715Z,95528.59
2022-10-31T14:12:28.325Z,95534.81
2022-10-31T14:15:05.626Z,95533.38
2022-10-31T14:17:41.970Z,95544.31
2022-10-31T14:20:11.802Z,95539.38
2022-10-31T14:22:42.921Z,95546.03
2022-10-31T14:25:33.461Z,95542.28
2022-10-31T14:28:03.814Z,95539.22
2022-10-31T14:30:31.947Z,95545.63
2022-10-31T14:33:02.296Z,95546.97
2022-10-31T14:35:56.138Z,95540.78
2022-10-31T14:38:34.627Z,95538.50
2022-10-31T14:41:23.256Z,95541.13
2022-10-31T14:44:16.322Z,95542.78
2022-10-31T14:46:51.912Z,95537.94
2022-10-31T14:49:42.946Z,95545.63
2022-10-31T14:52:14.420Z,95545.63
2022-10-31T14:54:46.913Z,95537.53
2022-10-31T14:57:23.070Z,95545.69
2022-10-31T14:59:57.881Z,95547.47
2022-10-31T15:02:35.727Z,95550.34
2022-10-31T15:05:11.196Z,95545.34
2022-10-31T15:07:49.966Z,95549.97
2022-10-31T15:10:33.046Z,95550.34
2022-10-31T15:13:29.125Z,95558.47
2022-10-31T15:15:56.919Z,95559.16
2022-10-31T15:18:27.822Z,95562.81
2022-10-31T15:20:56.737Z,95568.22
2022-10-31T15:23:29.288Z,95566.59
2022-10-31T15:26:01.633Z,95568.00
2022-10-31T15:28:28.816Z,95561.31
2022-10-31T15:31:01.350Z,95575.25
2022-10-31T15:33:37.916Z,95573.97
2022-10-31T15:36:05.930Z,95579.34
2022-10-31T15:38:33.801Z,95585.16
2022-10-31T15:41:20.431Z,95582.63
2022-10-31T15:43:48.310Z,95577.00
2022-10-31T15:46:15.258Z,95579.34
2022-10-31T15:48:46.928Z,95587.75
2022-10-31T15:51:13.744Z,95579.97
2022-10-31T15:53:45.704Z,95582.03
2022-10-31T15:56:20.295Z,95575.16
2022-10-31T15:58:52.790Z,95590.53
2022-10-31T16:01:28.891Z,95588.56
2022-10-31T16:03:59.237Z,95591.28
2022-10-31T16:06:26.578Z,95590.16
2022-10-31T16:08:53.800Z,95593.75
2022-10-31T16:11:40.071Z,95598.75
2022-10-31T16:14:23.211Z,95603.13
2022-10-31T16:16:59.057Z,95608.47
2022-10-31T16:19:38.858Z,95602.19
2022-10-31T16:22:11.036Z,95610.81
2022-10-31T16:24:59.710Z,95613.56
2022-10-31T16:27:32.216Z,95621.03
2022-10-31T16:30:02.479Z,95618.16
2022-10-31T16:32:37.780Z,95624.47
2022-10-31T16:35:10.858Z,95624.69
2022-10-31T16:37:41.835Z,95628.03
2022-10-31T16:40:14.057Z,95636.25
2022-10-31T16:42:41.853Z,95640.31
2022-10-31T16:45:15.120Z,95638.56
2022-10-31T16:47:41.835Z,95638.22
2022-10-31T16:50:21.150Z,95644.56
2022-10-31T16:55:37.835Z,95649.69
2022-10-31T16:58:04.666Z,95648.06
2022-10-31T17:00:31.775Z,95659.78
2022-10-31T17:02:58.597Z,95660.38
2022-10-31T17:05:30.572Z,95656.69
2022-10-31T17:07:58.244Z,95653.31
2022-10-31T17:10:27.125Z,95660.88
2022-10-31T17:12:54.703Z,95657.06
2022-10-31T17:15:27.655Z,95667.84
2022-10-31T17:17:55.608Z,95668.00
2022-10-31T17:20:30.667Z,95663.19
2022-10-31T17:23:00.185Z,95668.56
2022-10-31T17:25:30.364Z,95673.78
2022-10-31T17:27:57.101Z,95675.31
2022-10-31T17:30:24.208Z,95676.59
2022-10-31T17:32:52.282Z,95681.81
2022-10-31T17:35:21.220Z,95684.91
2022-10-31T17:37:48.820Z,95677.69
2022-10-31T17:40:19.158Z,95684.09
2022-10-31T17:42:54.901Z,95694.19
2022-10-31T17:45:24.846Z,95693.22
2022-10-31T17:47:53.199Z,95694.09
2022-10-31T17:50:23.328Z,95699.00
2022-10-31T17:52:50.342Z,95700.34
2022-10-31T17:55:17.869Z,95703.75
2022-10-31T17:57:44.924Z,95697.66
2022-10-31T18:00:17.922Z,95705.41
2022-10-31T18:02:45.310Z,95711.75
2022-10-31T18:05:12.415Z,95717.56
2022-10-31T18:07:39.278Z,95700.75
2022-10-31T18:10:09.532Z,95713.19
2022-10-31T18:12:37.818Z,95708.53
2022-10-31T18:15:05.296Z,95714.22
2022-10-31T18:17:32.306Z,95707.59
2022-10-31T18:19:59.245Z,95709.66
2022-10-31T18:22:25.992Z,95708.19
2022-10-31T18:24:52.855Z,95691.09
2022-10-31T18:27:19.757Z,95710.88
2022-10-31T18:29:46.570Z,95716.47
2022-10-31T18:32:13.350Z,95719.28
2022-10-31T18:34:40.242Z,95711.00
2022-10-31T18:37:07.059Z,95714.09
2022-10-31T18:39:33.855Z,95703.81
2022-10-31T18:42:00.721Z,95714.00
2022-10-31T18:44:27.954Z,95713.16
2022-10-31T18:46:54.980Z,95731.47
2022-10-31T18:49:25.950Z,95724.03
2022-10-31T18:51:52.983Z,95730.78
2022-10-31T18:54:19.949Z,95720.78
2022-10-31T18:56:46.887Z,95720.34
2022-10-31T18:59:13.819Z,95730.47
2022-10-31T19:01:40.904Z,95732.41
2022-10-31T19:04:07.931Z,95730.25
2022-10-31T19:06:34.804Z,95731.22
2022-10-31T19:09:05.322Z,95729.69
2022-10-31T19:11:33.790Z,95725.81
2022-10-31T19:14:01.293Z,95728.72
2022-10-31T19:16:28.763Z,95732.28
2022-10-31T19:18:56.977Z,95730.38
2022-10-31T19:21:24.243Z,95739.59
2022-10-31T19:23:54.092Z,95729.50
2022-10-31T19:26:20.918Z,95735.59
2022-10-31T19:28:47.664Z,95735.13
2022-10-31T19:31:15.574Z,95739.25
2022-10-31T19:33:43.274Z,95725.25
2022-10-31T19:36:13.590Z,95736.38
2022-10-31T19:38:43.064Z,95733.13
2022-10-31T19:41:14.594Z,95742.38
2022-10-31T19:43:41.912Z,95749.00
2022-10-31T19:46:17.535Z,95743.25
2022-10-31T19:48:49.804Z,95755.00
2022-10-31T19:51:20.028Z,95749.09
2022-10-31T19:53:49.396Z,95752.47
2022-10-31T19:56:19.662Z,95755.59
2022-10-31T19:58:47.141Z,95759.59
2022-10-31T20:01:20.300Z,95750.44
2022-10-31T20:03:48.695Z,95751.91
2022-10-31T20:06:24.422Z,95759.34
2022-10-31T20:08:52.964Z,95762.34
2022-10-31T20:11:21.673Z,95761.03
2022-10-31T20:13:48.611Z,95768.06
2022-10-31T20:16:16.750Z,95767.00
2022-10-31T20:18:44.378Z,95768.59
2022-10-31T20:21:14.492Z,95775.56
2022-10-31T20:23:41.739Z,95769.06
2022-10-31T20:26:12.720Z,95770.31
2022-10-31T20:28:43.314Z,95788.00
2022-10-31T20:31:17.170Z,95778.31
2022-10-31T20:33:44.197Z,95787.19
2022-10-31T20:36:11.675Z,95784.25
2022-10-31T20:38:40.117Z,95778.34
2022-10-31T20:41:10.000Z,95784.72
2022-10-31T20:43:37.551Z,95784.97
2022-10-31T20:46:07.077Z,95787.94
2022-10-31T20:48:34.351Z,95791.19
2022-10-31T20:51:04.578Z,95795.41
2022-10-31T20:53:32.425Z,95799.53
2022-10-31T20:56:14.389Z,95796.91
2022-10-31T20:58:42.846Z,95798.09
2022-10-31T21:01:15.574Z,95813.00
2022-10-31T21:03:43.324Z,95778.44
2022-10-31T21:06:11.225Z,95797.25
2022-10-31T21:08:38.875Z,95805.16
2022-10-31T21:11:08.666Z,95777.34
2022-10-31T21:13:40.746Z,95788.44
2022-10-31T21:16:11.231Z,95805.41
2022-10-31T21:18:40.061Z,95798.78
2022-10-31T21:21:27.610Z,95811.44
2022-10-31T21:24:04.751Z,95807.63
2022-10-31T21:26:35.460Z,95797.78
2022-10-31T21:29:03.021Z,95798.31
2022-10-31T21:31:29.808Z,95794.06
2022-10-31T21:33:57.834Z,95804.34
2022-10-31T21:36:26.238Z,95808.09
2022-10-31T21:38:54.713Z,95805.50
2022-10-31T21:41:22.371Z,95803.50
2022-10-31T21:43:51.278Z,95805.06
2022-10-31T21:46:20.537Z,95808.31
2022-10-31T21:48:49.419Z,95802.28
2022-10-31T21:51:22.083Z,95798.28
2022-10-31T21:54:08.268Z,95803.19
2022-10-31T21:56:35.766Z,95804.22
2022-10-31T21:59:02.562Z,95799.31
2022-10-31T22:01:30.141Z,95804.81
2022-10-31T22:03:58.051Z,95803.78
2022-10-31T22:06:26.684Z,95813.97
2022-10-31T22:08:58.878Z,95807.75
2022-10-31T22:11:25.858Z,95808.81
2022-10-31T22:13:52.587Z,95809.34
2022-10-31T22:16:21.503Z,95807.84
2022-10-31T22:18:52.781Z,95809.28
2022-10-31T22:21:22.866Z,95805.00
2022-10-31T22:23:55.141Z,95801.94
2022-10-31T22:26:22.312Z,95816.56
2022-10-31T22:29:10.483Z,95818.59
2022-10-31T22:31:42.332Z,95817.22
2022-10-31T22:34:09.818Z,95810.97
2022-10-31T22:36:37.805Z,95819.00
2022-10-31T22:39:05.787Z,95816.59
2022-10-31T22:41:35.411Z,95819.69
2022-10-31T22:44:03.309Z,95822.72
2022-10-31T22:46:32.355Z,95819.50
2022-10-31T22:49:02.478Z,95822.44
2022-10-31T22:51:32.233Z,95823.38
2022-10-31T22:53:59.456Z,95818.56
2022-10-31T22:56:31.712Z,95812.88
2022-10-31T22:58:59.438Z,95823.75
2022-10-31T23:01:29.289Z,95815.53
2022-10-31T23:03:56.265Z,95819.41
2022-10-31T23:06:25.719Z,95815.53
2022-10-31T23:08:53.330Z,95816.31
2022-10-31T23:11:23.359Z,95812.72
2022-10-31T23:14:10.822Z,95811.47
2022-10-31T23:16:46.837Z,95818.78
2022-10-31T23:19:19.699Z,95816.34
2022-10-31T23:21:55.320Z,95813.13
2022-10-31T23:24:38.662Z,95807.06
2022-10-31T23:27:20.252Z,95816.09
2022-10-31T23:29:56.615Z,95817.66
2022-10-31T23:32:28.767Z,95812.78
2022-10-31T23:34:58.133Z,95802.75
2022-10-31T23:37:27.663Z,95800.72
2022-10-31T23:39:55.328Z,95799.16
2022-10-31T23:42:23.243Z,95806.31
2022-10-31T23:44:50.054Z,95814.59
2022-10-31T23:47:17.080Z,95811.81
2022-10-31T23:49:43.925Z,95809.44
2022-10-31T23:52:11.403Z,95808.91
2022-10-31T23:54:38.920Z,95808.09
2022-10-31T23:57:05.990Z,95813.88
2022-10-31T23:59:33.202Z,95816.00
